Time;durP1;ratioP1;P1;durP2;ratioP2;P2;SDS_P1;SDS_P2;PMS_P1;PMS_P2;Temp;Humidity;BMP_temperature;BMP_pressure;BME280_temperature;BME280_humidity;BME280_pressure;Samples;Min_cycle;Max_cycle;Signal;HPM_P1;HPM_P2
2024/02/09 00:02:13;;;;;;;;;;;;;;;;;;5078765;28;19924;-82
2024/02/09 00:04:40;;;;;;;;;;;;;;;;;;5078528;28;19924;-80
2024/02/09 00:07:07;;;;;;;;;;;;;;;;;;5070350;28;19951;-81
2024/02/09 00:09:34;;;;;;;;;;;;;;;;;;5067914;28;19936;-79
2024/02/09 00:12:01;;;;;;;;;;;;;;;;;;5071547;28;19931;-81
2024/02/09 00:14:27;;;;;;;;;;;;;;;;;;5070920;28;19935;-81
2024/02/09 00:16:54;;;;;;;;;;;;;;;;;;5082332;28;19928;-81
2024/02/09 00:19:22;;;;;;;;;;;;;;;;;;5079592;28;20443;-80
2024/02/09 00:21:48;;;;;;;;;;;;;;;;;;5081127;28;20022;-81
2024/02/09 00:24:14;;;;;;;;;;;;;;;;;;5073508;28;19931;-81
2024/02/09 00:26:41;;;;;;;;;;;;;;;;;;5069682;28;19930;-81
2024/02/09 00:29:07;;;;;;;;;;;;;;;;;;5080979;28;20406;-81
2024/02/09 00:31:34;;;;;;;;;;;;;;;;;;5065362;28;20011;-80
2024/02/09 00:34:00;;;;;;;;;;;;;;;;;;5069134;28;19974;-80
2024/02/09 00:36:29;;;;;;;;;;;;;;;;;;5082063;28;20037;-80
2024/02/09 00:38:56;;;;;;;;;;;;;;;;;;5083215;28;19928;-80
2024/02/09 00:41:23;;;;;;;;;;;;;;;;;;5075502;28;19928;-80
2024/02/09 00:43:50;;;;;;;;;;;;;;;;;;5071010;28;19925;-81
2024/02/09 00:46:17;;;;;;;;;;;;;;;;;;5069957;28;19939;-81
2024/02/09 00:48:45;;;;;;;;;;;;;;;;;;5071901;28;19928;-81
2024/02/09 00:51:13;;;;;;;;;;;;;;;;;;5081151;28;20381;-81
2024/02/09 00:53:39;;;;;;;;;;;;;;;;;;5078531;28;20390;-80
2024/02/09 00:56:06;;;;;;;;;;;;;;;;;;5080400;28;19924;-80
2024/02/09 00:58:33;;;;;;;;;;;;;;;;;;5078178;28;19989;-80
2024/02/09 01:00:59;;;;;;;;;;;;;;;;;;5075256;28;20004;-80
2024/02/09 01:03:26;;;;;;;;;;;;;;;;;;5068940;28;19925;-79
2024/02/09 01:05:52;;;;;;;;;;;;;;;;;;5080006;28;19924;-80
2024/02/09 01:08:18;;;;;;;;;;;;;;;;;;5078585;28;19929;-80
2024/02/09 01:10:46;;;;;;;;;;;;;;;;;;5082250;28;20749;-80
2024/02/09 02:46:15;;;;;;;;;;;;;;;;;;5065391;28;19928;-79
2024/02/09 03:05:17;;;;;;;;;;;;;;;;;;5080138;28;19935;-79
2024/02/09 03:07:44;;;;;;;;;;;;;;;;;;5078646;28;19935;-80
2024/02/09 03:10:31;;;;;;;;;;;;;;;;;;5068885;28;19928;-79
2024/02/09 03:12:57;;;;;;;;;;;;;;;;;;5077256;28;19929;-78
2024/02/09 03:15:23;;;;;;;;;;;;;;;;;;5074248;28;19928;-80
2024/02/09 03:17:53;;;;;;;;;;;;;;;;;;5072782;28;19924;-80
2024/02/09 03:20:24;;;;;;;;;;;;;;;;;;5076340;28;20491;-78
2024/02/09 03:22:51;;;;;;;;;;;;;;;;;;5072254;28;19967;-80
2024/02/09 03:25:21;;;;;;;;;;;;;;;;;;5070396;28;19928;-80
2024/02/09 03:27:47;;;;;;;;;;;;;;;;;;5076607;28;19983;-81
2024/02/09 03:30:16;;;;;;;;;;;;;;;;;;5075998;28;20015;-79
2024/02/09 03:32:44;;;;;;;;;;;;;;;;;;5075887;28;19935;-77
2024/02/09 03:35:12;;;;;;;;;;;;;;;;;;5082471;28;20408;-79
2024/02/09 03:37:42;;;;;;;;;;;;;;;;;;5055085;28;19925;-80
2024/02/09 03:40:08;;;;;;;;;;;;;;;;;;5081169;28;20293;-79
2024/02/09 03:42:34;;;;;;;;;;;;;;;;;;5079832;28;19930;-79
2024/02/09 03:45:04;;;;;;;;;;;;;;;;;;5087091;28;19931;-81
2024/02/09 03:47:30;;;;;;;;;;;;;;;;;;5085495;28;19938;-78
2024/02/09 03:49:56;;;;;;;;;;;;;;;;;;5079926;28;19936;-80
2024/02/09 03:52:23;;;;;;;;;;;;;;;;;;5077569;28;20301;-80
2024/02/09 03:54:53;;;;;;;;;;;;;;;;;;5074622;28;19931;-79
2024/02/09 03:57:19;;;;;;;;;;;;;;;;;;5068935;28;20380;-80
2024/02/09 03:59:45;;;;;;;;;;;;;;;;;;5078772;28;19925;-81
2024/02/09 04:02:12;;;;;;;;;;;;;;;;;;5072661;28;19929;-80
2024/02/09 04:04:38;;;;;;;;;;;;;;;;;;5064636;28;19930;-81
2024/02/09 04:07:10;;;;;;;;;;;;;;;;;;5074123;28;19971;-80
2024/02/09 04:09:37;;;;;;;;;;;;;;;;;;5070085;28;19932;-81
2024/02/09 04:12:23;;;;;;;;;;;;;;;;;;5079278;28;19935;-80
2024/02/09 04:14:49;;;;;;;;;;;;;;;;;;5066858;28;19932;-80
2024/02/09 04:17:16;;;;;;;;;;;;;;;;;;5080496;28;20299;-79
2024/02/09 04:19:43;;;;;;;;;;;;;;;;;;5075950;28;20016;-81
2024/02/09 04:22:10;;;;;;;;;;;;;;;;;;5070057;28;19963;-81
2024/02/09 04:24:36;;;;;;;;;;;;;;;;;;5077368;28;19928;-80
2024/02/09 04:27:03;;;;;;;;;;;;;;;;;;5068769;28;19935;-80
2024/02/09 04:29:32;;;;;;;;;;;;;;;;;;5082229;28;19925;-79
2024/02/09 04:32:00;;;;;;;;;;;;;;;;;;5071429;28;19931;-80
2024/02/09 04:34:26;;;;;;;;;;;;;;;;;;5085127;28;20280;-81
2024/02/09 04:36:55;;;;;;;;;;;;;;;;;;5069088;28;19975;-81
2024/02/09 04:39:21;;;;;;;;;;;;;;;;;;5079567;28;19931;-80
2024/02/09 04:41:48;;;;;;;;;;;;;;;;;;5078783;28;19932;-79
2024/02/09 04:44:14;;;;;;;;;;;;;;;;;;5070854;28;19929;-80
2024/02/09 04:46:42;;;;;;;;;;;;;;;;;;5078698;28;19924;-80
2024/02/09 04:49:08;;;;;;;;;;;;;;;;;;5073315;28;19932;-78
2024/02/09 04:51:35;;;;;;;;;;;;;;;;;;5076028;28;20296;-80
2024/02/09 04:54:01;;;;;;;;;;;;;;;;;;5076736;28;20385;-80
2024/02/09 04:56:32;;;;;;;;;;;;;;;;;;5078273;28;20051;-79
2024/02/09 04:58:58;;;;;;;;;;;;;;;;;;5073279;28;20380;-79
2024/02/09 05:01:28;;;;;;;;;;;;;;;;;;5076955;28;19936;-80
2024/02/09 05:03:55;;;;;;;;;;;;;;;;;;5079085;28;19924;-80
2024/02/09 05:06:21;;;;;;;;;;;;;;;;;;5078486;28;20365;-81
2024/02/09 05:08:48;;;;;;;;;;;;;;;;;;5080258;28;19979;-81
2024/02/09 05:11:14;;;;;;;;;;;;;;;;;;5081366;28;20011;-78
2024/02/09 05:13:40;;;;;;;;;;;;;;;;;;5081720;28;19924;-81
2024/02/09 05:16:10;;;;;;;;;;;;;;;;;;5076183;28;19978;-80
2024/02/09 05:18:37;;;;;;;;;;;;;;;;;;5073654;28;19925;-80
2024/02/09 05:21:03;;;;;;;;;;;;;;;;;;5074673;28;20443;-79
2024/02/09 05:23:30;;;;;;;;;;;;;;;;;;5072125;28;19931;-79
2024/02/09 05:25:56;;;;;;;;;;;;;;;;;;5071737;28;19936;-80
2024/02/09 05:28:23;;;;;;;;;;;;;;;;;;5069576;28;20269;-79
2024/02/09 05:30:49;;;;;;;;;;;;;;;;;;5077843;28;19963;-80
2024/02/09 05:33:16;;;;;;;;;;;;;;;;;;5076451;28;20649;-80
2024/02/09 05:35:43;;;;;;;;;;;;;;;;;;5074506;28;19928;-80
2024/02/09 05:38:09;;;;;;;;;;;;;;;;;;5073336;28;19963;-80
2024/02/09 05:40:36;;;;;;;;;;;;;;;;;;5075645;28;19931;-80
2024/02/09 05:43:02;;;;;;;;;;;;;;;;;;5071333;28;19989;-80
2024/02/09 05:45:30;;;;;;;;;;;;;;;;;;5082499;28;19953;-80
2024/02/09 05:47:56;;;;;;;;;;;;;;;;;;5067640;28;19960;-79
2024/02/09 05:50:23;;;;;;;;;;;;;;;;;;5074020;28;19923;-80
2024/02/09 05:52:56;;;;;;;;;;;;;;;;;;5075597;28;19925;-80
2024/02/09 05:55:23;;;;;;;;;;;;;;;;;;5070927;28;20296;-79
2024/02/09 05:57:54;;;;;;;;;;;;;;;;;;5074806;28;19956;-79
2024/02/09 06:00:21;;;;;;;;;;;;;;;;;;5074770;28;20010;-79
2024/02/09 06:02:51;;;;;;;;;;;;;;;;;;5082740;28;19924;-80
2024/02/09 06:05:17;;;;;;;;;;;;;;;;;;5063332;28;19932;-80
2024/02/09 06:07:43;;;;;;;;;;;;;;;;;;5076522;28;19924;-79
2024/02/09 06:10:10;;;;;;;;;;;;;;;;;;5070296;28;20420;-80
2024/02/09 06:12:37;;;;;;;;;;;;;;;;;;5073080;28;20018;-79
2024/02/09 06:15:05;;;;;;;;;;;;;;;;;;5069663;28;19928;-80
2024/02/09 06:17:31;;;;;;;;;;;;;;;;;;5070918;28;20311;-80
2024/02/09 06:19:58;;;;;;;;;;;;;;;;;;5072726;28;19951;-80
2024/02/09 06:22:25;;;;;;;;;;;;;;;;;;5080572;28;19924;-80
2024/02/09 06:24:54;;;;;;;;;;;;;;;;;;5067172;28;19963;-78
2024/02/09 06:27:21;;;;;;;;;;;;;;;;;;5076712;28;19925;-79
2024/02/09 06:29:49;;;;;;;;;;;;;;;;;;5078860;28;20033;-80
2024/02/09 06:32:16;;;;;;;;;;;;;;;;;;5070118;28;19935;-80
2024/02/09 06:34:42;;;;;;;;;;;;;;;;;;5065392;28;19925;-80
2024/02/09 06:37:08;;;;;;;;;;;;;;;;;;5079174;28;20368;-80
2024/02/09 06:39:35;;;;;;;;;;;;;;;;;;5078882;28;19985;-78
2024/02/09 06:42:01;;;;;;;;;;;;;;;;;;5066375;28;19925;-80
2024/02/09 06:44:28;;;;;;;;;;;;;;;;;;5070541;28;20289;-80
2024/02/09 06:46:54;;;;;;;;;;;;;;;;;;5065638;28;20042;-79
2024/02/09 06:49:24;;;;;;;;;;;;;;;;;;5080550;28;19928;-80
2024/02/09 06:51:51;;;;;;;;;;;;;;;;;;5074563;28;20348;-80
2024/02/09 06:54:17;;;;;;;;;;;;;;;;;;5065509;28;20350;-80
2024/02/09 06:56:44;;;;;;;;;;;;;;;;;;5058406;28;20004;-80
2024/02/09 06:59:10;;;;;;;;;;;;;;;;;;5069141;28;19925;-81
2024/02/09 07:01:38;;;;;;;;;;;;;;;;;;5073795;28;20381;-81
2024/02/09 07:04:08;;;;;;;;;;;;;;;;;;5070542;28;20347;-79
2024/02/09 07:06:35;;;;;;;;;;;;;;;;;;5063941;28;19983;-80
2024/02/09 07:09:01;;;;;;;;;;;;;;;;;;5072751;28;20373;-80
2024/02/09 07:11:28;;;;;;;;;;;;;;;;;;5073326;28;19924;-80
2024/02/09 07:13:54;;;;;;;;;;;;;;;;;;5058866;28;19946;-80
2024/02/09 07:16:20;;;;;;;;;;;;;;;;;;5074517;28;19960;-80
2024/02/09 07:18:47;;;;;;;;;;;;;;;;;;5078418;28;19925;-79
2024/02/09 07:21:14;;;;;;;;;;;;;;;;;;5077082;28;19963;-80
2024/02/09 07:23:41;;;;;;;;;;;;;;;;;;5082784;28;20288;-77
2024/02/09 07:26:10;;;;;;;;;;;;;;;;;;5076765;28;19928;-80
2024/02/09 07:28:40;;;;;;;;;;;;;;;;;;5080240;28;19932;-81
2024/02/09 07:31:08;;;;;;;;;;;;;;;;;;5080703;28;19932;-78
2024/02/09 07:33:35;;;;;;;;;;;;;;;;;;5072966;28;20058;-77
2024/02/09 07:36:02;;;;;;;;;;;;;;;;;;5076282;28;19944;-79
2024/02/09 07:38:28;;;;;;;;;;;;;;;;;;5072287;28;19930;-79
2024/02/09 07:40:54;;;;;;;;;;;;;;;;;;5082812;28;19924;-78
2024/02/09 07:43:21;;;;;;;;;;;;;;;;;;5078342;28;20274;-80
2024/02/09 07:45:48;;;;;;;;;;;;;;;;;;5075106;28;19928;-79
2024/02/09 07:48:14;;;;;;;;;;;;;;;;;;5062894;28;20275;-79
2024/02/09 07:50:41;;;;;;;;;;;;;;;;;;5083830;28;19924;-80
2024/02/09 07:53:08;;;;;;;;;;;;;;;;;;5080162;28;19928;-79
2024/02/09 07:55:34;;;;;;;;;;;;;;;;;;5075965;28;19931;-79
2024/02/09 07:58:01;;;;;;;;;;;;;;;;;;5083576;28;20300;-80
2024/02/09 08:00:27;;;;;;;;;;;;;;;;;;5079958;28;19959;-78
2024/02/09 08:02:53;;;;;;;;;;;;;;;;;;5084540;28;19967;-80
2024/02/09 08:05:20;;;;;;;;;;;;;;;;;;5081161;28;19928;-81
2024/02/09 08:07:46;;;;;;;;;;;;;;;;;;5086864;28;19924;-80
2024/02/09 08:10:15;;;;;;;;;;;;;;;;;;5074981;28;20427;-81
2024/02/09 08:12:42;;;;;;;;;;;;;;;;;;5080936;28;20003;-82
2024/02/09 08:15:11;;;;;;;;;;;;;;;;;;5081921;28;19928;-81
2024/02/09 08:17:38;;;;;;;;;;;;;;;;;;5081956;28;19924;-79
2024/02/09 08:20:05;;;;;;;;;;;;;;;;;;5074139;28;19936;-80
2024/02/09 08:22:34;;;;;;;;;;;;;;;;;;5084476;28;19924;-82
2024/02/09 08:25:00;;;;;;;;;;;;;;;;;;5078220;28;20279;-80
2024/02/09 08:27:27;;;;;;;;;;;;;;;;;;5082578;28;19924;-80
2024/02/09 08:29:56;;;;;;;;;;;;;;;;;;5079659;28;19935;-80
2024/02/09 08:32:22;;;;;;;;;;;;;;;;;;5073552;28;19934;-80
2024/02/09 08:34:50;;;;;;;;;;;;;;;;;;5080586;28;19930;-79
2024/02/09 08:37:17;;;;;;;;;;;;;;;;;;5076254;28;20349;-81
2024/02/09 08:39:45;;;;;;;;;;;;;;;;;;5083132;28;20409;-81
2024/02/09 08:42:11;;;;;;;;;;;;;;;;;;5085385;28;19924;-80
2024/02/09 08:44:38;;;;;;;;;;;;;;;;;;5074825;28;19931;-80
2024/02/09 08:47:05;;;;;;;;;;;;;;;;;;5077443;28;19930;-79
2024/02/09 08:49:31;;;;;;;;;;;;;;;;;;5088267;28;20014;-79
2024/02/09 08:51:58;;;;;;;;;;;;;;;;;;5075999;28;19954;-79
2024/02/09 08:54:24;;;;;;;;;;;;;;;;;;5084096;28;19928;-79
2024/02/09 08:56:53;;;;;;;;;;;;;;;;;;5083830;28;20274;-77
2024/02/09 08:59:20;;;;;;;;;;;;;;;;;;5088628;28;20034;-80
2024/02/09 09:01:46;;;;;;;;;;;;;;;;;;5079467;28;19925;-78
2024/02/09 09:04:13;;;;;;;;;;;;;;;;;;5076292;28;19956;-80
2024/02/09 09:06:41;;;;;;;;;;;;;;;;;;5079636;28;19924;-78
2024/02/09 09:09:08;;;;;;;;;;;;;;;;;;5078593;28;20002;-80
2024/02/09 09:11:36;;;;;;;;;;;;;;;;;;5075506;28;19924;-78
2024/02/09 09:14:03;;;;;;;;;;;;;;;;;;5084719;28;20005;-78
2024/02/09 09:16:30;;;;;;;;;;;;;;;;;;5078572;28;19952;-78
2024/02/09 09:18:57;;;;;;;;;;;;;;;;;;5073266;28;19928;-79
2024/02/09 09:21:23;;;;;;;;;;;;;;;;;;5084032;28;19935;-78
2024/02/09 09:23:51;;;;;;;;;;;;;;;;;;5072834;28;19933;-76
2024/02/09 09:26:17;;;;;;;;;;;;;;;;;;5078578;28;20007;-77
2024/02/09 09:28:51;;;;;;;;;;;;;;;;;;5079182;28;19979;-77
2024/02/09 09:31:19;;;;;;;;;;;;;;;;;;5077612;28;20020;-77
2024/02/09 09:33:46;;;;;;;;;;;;;;;;;;5077876;28;19959;-78
2024/02/09 09:36:12;;;;;;;;;;;;;;;;;;5086104;28;19925;-77
2024/02/09 09:38:39;;;;;;;;;;;;;;;;;;5081936;28;19947;-74
2024/02/09 09:41:05;;;;;;;;;;;;;;;;;;5074495;28;20285;-75
2024/02/09 09:43:33;;;;;;;;;;;;;;;;;;5075413;28;19933;-76
2024/02/09 09:46:00;;;;;;;;;;;;;;;;;;5070233;28;20389;-75
2024/02/09 09:48:27;;;;;;;;;;;;;;;;;;5074677;28;19924;-78
2024/02/09 09:50:53;;;;;;;;;;;;;;;;;;5080204;28;19931;-78
2024/02/09 09:53:20;;;;;;;;;;;;;;;;;;5078598;28;19928;-79
2024/02/09 09:55:46;;;;;;;;;;;;;;;;;;5079605;28;19924;-75
2024/02/09 09:58:13;;;;;;;;;;;;;;;;;;5077056;28;19957;-76
2024/02/09 10:00:39;;;;;;;;;;;;;;;;;;5084161;28;19924;-76
2024/02/09 10:03:07;;;;;;;;;;;;;;;;;;5078794;28;19924;-77
2024/02/09 10:05:35;;;;;;;;;;;;;;;;;;5070413;28;19978;-76
2024/02/09 10:08:02;;;;;;;;;;;;;;;;;;5080941;28;19925;-76
2024/02/09 10:10:28;;;;;;;;;;;;;;;;;;5071802;28;19959;-77
2024/02/09 10:12:56;;;;;;;;;;;;;;;;;;5077780;28;19975;-75
2024/02/09 10:15:22;;;;;;;;;;;;;;;;;;5072746;28;19924;-76
2024/02/09 10:17:49;;;;;;;;;;;;;;;;;;5079953;28;19931;-76
2024/02/09 10:20:15;;;;;;;;;;;;;;;;;;5076968;28;19925;-76
2024/02/09 10:22:42;;;;;;;;;;;;;;;;;;5077423;28;19925;-77
2024/02/09 10:25:08;;;;;;;;;;;;;;;;;;5075037;28;19929;-77
2024/02/09 10:27:35;;;;;;;;;;;;;;;;;;5079623;28;19928;-75
2024/02/09 10:30:02;;;;;;;;;;;;;;;;;;5078200;28;19927;-75
2024/02/09 10:32:28;;;;;;;;;;;;;;;;;;5078283;28;19928;-76
2024/02/09 10:34:55;;;;;;;;;;;;;;;;;;5077721;28;19928;-75
2024/02/09 10:37:22;;;;;;;;;;;;;;;;;;5076638;28;19963;-76
2024/02/09 10:39:54;;;;;;;;;;;;;;;;;;5074431;28;20265;-75
2024/02/09 10:42:23;;;;;;;;;;;;;;;;;;5079785;28;19924;-75
2024/02/09 10:44:49;;;;;;;;;;;;;;;;;;5080593;28;19951;-75
2024/02/09 10:47:16;;;;;;;;;;;;;;;;;;5077384;28;19931;-78
2024/02/09 10:49:43;;;;;;;;;;;;;;;;;;5081844;28;20319;-76
2024/02/09 10:52:10;;;;;;;;;;;;;;;;;;5080792;28;19977;-76
2024/02/09 10:54:40;;;;;;;;;;;;;;;;;;5079630;28;20019;-76
2024/02/09 10:57:09;;;;;;;;;;;;;;;;;;5080520;28;19924;-76
2024/02/09 10:59:35;;;;;;;;;;;;;;;;;;5086709;28;20489;-76
2024/02/09 11:02:02;;;;;;;;;;;;;;;;;;5083006;28;19928;-76
2024/02/09 11:04:28;;;;;;;;;;;;;;;;;;5081770;28;20023;-75
2024/02/09 11:06:55;;;;;;;;;;;;;;;;;;5072488;28;20377;-75
2024/02/09 11:09:21;;;;;;;;;;;;;;;;;;5063081;28;19929;-76
2024/02/09 11:11:47;;;;;;;;;;;;;;;;;;5071998;28;20447;-78
2024/02/09 11:14:17;;;;;;;;;;;;;;;;;;5079829;28;19929;-75
2024/02/09 11:16:44;;;;;;;;;;;;;;;;;;5071136;28;19931;-76
2024/02/09 11:19:11;;;;;;;;;;;;;;;;;;5074312;28;19933;-77
2024/02/09 11:21:37;;;;;;;;;;;;;;;;;;5060198;28;19971;-76
2024/02/09 11:24:06;;;;;;;;;;;;;;;;;;5080406;28;19951;-76
2024/02/09 11:26:32;;;;;;;;;;;;;;;;;;5077957;28;20024;-76
2024/02/09 11:28:58;;;;;;;;;;;;;;;;;;5083203;28;19928;-74
2024/02/09 11:31:25;;;;;;;;;;;;;;;;;;5073552;28;20011;-75
2024/02/09 11:33:51;;;;;;;;;;;;;;;;;;5076706;28;19998;-76
2024/02/09 11:36:18;;;;;;;;;;;;;;;;;;5073358;28;19928;-76
2024/02/09 11:38:44;;;;;;;;;;;;;;;;;;5072977;28;20314;-75
2024/02/09 11:41:11;;;;;;;;;;;;;;;;;;5085186;28;19929;-75
2024/02/09 11:43:37;;;;;;;;;;;;;;;;;;5078161;28;19924;-76
2024/02/09 11:46:06;;;;;;;;;;;;;;;;;;5080478;28;19925;-76
2024/02/09 11:48:32;;;;;;;;;;;;;;;;;;5071700;28;19924;-75
2024/02/09 11:50:58;;;;;;;;;;;;;;;;;;5065454;28;19929;-76
2024/02/09 11:53:25;;;;;;;;;;;;;;;;;;5079122;28;19930;-76
2024/02/09 11:55:52;;;;;;;;;;;;;;;;;;5077418;28;20296;-76
2024/02/09 11:58:19;;;;;;;;;;;;;;;;;;5078608;28;19925;-76
2024/02/09 12:00:50;;;;;;;;;;;;;;;;;;5074475;28;19931;-76
2024/02/09 12:03:17;;;;;;;;;;;;;;;;;;5079262;28;20300;-75
2024/02/09 12:05:43;;;;;;;;;;;;;;;;;;5081288;28;19924;-75
2024/02/09 12:08:09;;;;;;;;;;;;;;;;;;5082173;28;19982;-76
2024/02/09 12:10:36;;;;;;;;;;;;;;;;;;5080141;28;20019;-78
2024/02/09 12:13:05;;;;;;;;;;;;;;;;;;5079357;28;19933;-75
2024/02/09 12:15:31;;;;;;;;;;;;;;;;;;5076497;28;19932;-76
2024/02/09 12:18:01;;;;;;;;;;;;;;;;;;5082138;28;20671;-75
2024/02/09 12:20:28;;;;;;;;;;;;;;;;;;5078216;28;19925;-76
2024/02/09 12:22:55;;;;;;;;;;;;;;;;;;5086161;28;19929;-76
2024/02/09 12:25:22;;;;;;;;;;;;;;;;;;5085146;28;20012;-75
2024/02/09 12:27:48;;;;;;;;;;;;;;;;;;5079221;28;19967;-76
2024/02/09 12:30:15;;;;;;;;;;;;;;;;;;5083375;28;20015;-77
2024/02/09 12:32:42;;;;;;;;;;;;;;;;;;5083890;28;20043;-75
2024/02/09 12:35:10;;;;;;;;;;;;;;;;;;5083545;28;19935;-76
2024/02/09 12:37:36;;;;;;;;;;;;;;;;;;5080177;28;19925;-75
2024/02/09 12:40:05;;;;;;;;;;;;;;;;;;5068807;28;19935;-75
2024/02/09 12:42:31;;;;;;;;;;;;;;;;;;5081659;28;19931;-75
2024/02/09 12:44:58;;;;;;;;;;;;;;;;;;5080201;28;19928;-75
2024/02/09 12:47:24;;;;;;;;;;;;;;;;;;5080093;28;19967;-76
2024/02/09 12:49:52;;;;;;;;;;;;;;;;;;5075642;28;19928;-75
2024/02/09 12:52:19;;;;;;;;;;;;;;;;;;5081749;28;19959;-75
2024/02/09 12:54:46;;;;;;;;;;;;;;;;;;5084743;28;19975;-76
2024/02/09 12:57:13;;;;;;;;;;;;;;;;;;5081304;28;19936;-76
2024/02/09 12:59:42;;;;;;;;;;;;;;;;;;5069578;28;19925;-77
2024/02/09 13:02:10;;;;;;;;;;;;;;;;;;5057523;28;20011;-76
2024/02/09 13:04:36;;;;;;;;;;;;;;;;;;5076871;28;19928;-78
2024/02/09 13:07:06;;;;;;;;;;;;;;;;;;5079558;28;20401;-76
2024/02/09 13:09:32;;;;;;;;;;;;;;;;;;5064193;28;19975;-75
2024/02/09 13:11:59;;;;;;;;;;;;;;;;;;5070296;28;19982;-73
2024/02/09 13:14:25;;;;;;;;;;;;;;;;;;5076147;28;20643;-76
2024/02/09 13:16:52;;;;;;;;;;;;;;;;;;5071413;28;19925;-76
2024/02/09 13:19:18;;;;;;;;;;;;;;;;;;5074285;28;19931;-76
2024/02/09 13:21:45;;;;;;;;;;;;;;;;;;5073498;28;20266;-75
2024/02/09 13:24:12;;;;;;;;;;;;;;;;;;5079018;28;19963;-76
2024/02/09 13:26:39;;;;;;;;;;;;;;;;;;5074612;28;20388;-75
2024/02/09 13:29:05;;;;;;;;;;;;;;;;;;5075606;28;19933;-77
2024/02/09 13:31:37;;;;;;;;;;;;;;;;;;5065193;28;19924;-76
2024/02/09 13:34:03;;;;;;;;;;;;;;;;;;5070470;28;20389;-76
2024/02/09 13:36:30;;;;;;;;;;;;;;;;;;5080834;28;19924;-76
2024/02/09 13:38:56;;;;;;;;;;;;;;;;;;5077735;28;19974;-77
2024/02/09 13:41:23;;;;;;;;;;;;;;;;;;5070284;28;20254;-77
2024/02/09 13:43:49;;;;;;;;;;;;;;;;;;5081728;28;19932;-74
2024/02/09 13:46:16;;;;;;;;;;;;;;;;;;5082463;28;19924;-75
2024/02/09 13:48:48;;;;;;;;;;;;;;;;;;5074269;28;20453;-78
2024/02/09 13:51:16;;;;;;;;;;;;;;;;;;5079189;28;19931;-74
2024/02/09 13:53:43;;;;;;;;;;;;;;;;;;5080166;28;20348;-74
2024/02/09 13:56:11;;;;;;;;;;;;;;;;;;5070766;28;19924;-75
2024/02/09 13:58:37;;;;;;;;;;;;;;;;;;5069203;28;19978;-75
2024/02/09 14:01:04;;;;;;;;;;;;;;;;;;5080519;28;19924;-77
2024/02/09 14:03:30;;;;;;;;;;;;;;;;;;5074678;28;19932;-75
2024/02/09 14:05:58;;;;;;;;;;;;;;;;;;5085844;28;19936;-74
2024/02/09 14:08:25;;;;;;;;;;;;;;;;;;5077704;28;19925;-76
2024/02/09 14:10:52;;;;;;;;;;;;;;;;;;5078292;28;20798;-75
2024/02/09 14:13:18;;;;;;;;;;;;;;;;;;5076882;28;19974;-75
2024/02/09 14:15:48;;;;;;;;;;;;;;;;;;5080961;28;19924;-76
2024/02/09 14:18:14;;;;;;;;;;;;;;;;;;5077301;28;19931;-75
2024/02/09 14:20:41;;;;;;;;;;;;;;;;;;5083193;28;19925;-79
2024/02/09 14:23:07;;;;;;;;;;;;;;;;;;5078008;28;19960;-77
2024/02/09 14:25:33;;;;;;;;;;;;;;;;;;5081442;28;19924;-76
2024/02/09 14:28:01;;;;;;;;;;;;;;;;;;5083136;28;19982;-76
2024/02/09 14:30:27;;;;;;;;;;;;;;;;;;5080549;28;19928;-76
2024/02/09 14:32:54;;;;;;;;;;;;;;;;;;5083752;28;20262;-76
2024/02/09 14:35:20;;;;;;;;;;;;;;;;;;5062772;28;20097;-77
2024/02/09 14:37:47;;;;;;;;;;;;;;;;;;5087834;28;19939;-72
2024/02/09 14:40:14;;;;;;;;;;;;;;;;;;5075461;28;19985;-76
2024/02/09 14:42:40;;;;;;;;;;;;;;;;;;5080991;28;19936;-75
2024/02/09 14:45:07;;;;;;;;;;;;;;;;;;5062331;28;20023;-77
2024/02/09 14:47:33;;;;;;;;;;;;;;;;;;5078703;28;20281;-76
2024/02/09 14:50:00;;;;;;;;;;;;;;;;;;5075810;28;20011;-75
2024/02/09 14:52:27;;;;;;;;;;;;;;;;;;5077617;28;19928;-74
2024/02/09 14:54:54;;;;;;;;;;;;;;;;;;5079003;28;19924;-75
2024/02/09 14:57:20;;;;;;;;;;;;;;;;;;5078681;28;19932;-76
2024/02/09 14:59:47;;;;;;;;;;;;;;;;;;5079682;28;20296;-76
2024/02/09 15:02:13;;;;;;;;;;;;;;;;;;5081515;28;19925;-77
2024/02/09 15:04:41;;;;;;;;;;;;;;;;;;5077914;28;19925;-75
2024/02/09 15:07:09;;;;;;;;;;;;;;;;;;5075920;28;20388;-76
2024/02/09 15:09:36;;;;;;;;;;;;;;;;;;5073914;28;20274;-76
2024/02/09 15:12:03;;;;;;;;;;;;;;;;;;5075969;28;20005;-74
2024/02/09 15:14:30;;;;;;;;;;;;;;;;;;5079612;28;20428;-76
2024/02/09 15:16:57;;;;;;;;;;;;;;;;;;5081874;28;20391;-76
2024/02/09 15:19:25;;;;;;;;;;;;;;;;;;5075530;28;21684;-77
2024/02/09 15:21:53;;;;;;;;;;;;;;;;;;5076827;28;20328;-77
2024/02/09 15:24:19;;;;;;;;;;;;;;;;;;5089504;28;19931;-76
2024/02/09 15:26:46;;;;;;;;;;;;;;;;;;5062420;28;19928;-75
2024/02/09 15:29:12;;;;;;;;;;;;;;;;;;5084809;28;20280;-75
2024/02/09 15:31:40;;;;;;;;;;;;;;;;;;5084200;28;19924;-74
2024/02/09 15:34:07;;;;;;;;;;;;;;;;;;5082114;28;19977;-76
2024/02/09 15:36:34;;;;;;;;;;;;;;;;;;5073716;28;19935;-76
2024/02/09 15:39:01;;;;;;;;;;;;;;;;;;5076829;28;19931;-75
2024/02/09 15:41:28;;;;;;;;;;;;;;;;;;5078318;28;20374;-76
2024/02/09 15:43:54;;;;;;;;;;;;;;;;;;5078312;28;19975;-76
2024/02/09 15:46:21;;;;;;;;;;;;;;;;;;5069463;28;19982;-76
2024/02/09 15:48:50;;;;;;;;;;;;;;;;;;5080060;28;19924;-75
2024/02/09 15:51:17;;;;;;;;;;;;;;;;;;5067688;28;19925;-76
2024/02/09 15:53:44;;;;;;;;;;;;;;;;;;5076584;28;19925;-76
2024/02/09 15:56:11;;;;;;;;;;;;;;;;;;5082757;28;19924;-77
2024/02/09 15:58:37;;;;;;;;;;;;;;;;;;5057262;28;19932;-76
2024/02/09 16:01:05;;;;;;;;;;;;;;;;;;5082618;28;19931;-77
2024/02/09 16:03:32;;;;;;;;;;;;;;;;;;5073959;28;19928;-75
2024/02/09 16:05:58;;;;;;;;;;;;;;;;;;5082467;28;19946;-77
2024/02/09 16:08:25;;;;;;;;;;;;;;;;;;5068717;28;19931;-75
2024/02/09 16:10:51;;;;;;;;;;;;;;;;;;5080964;28;19932;-77
2024/02/09 16:13:18;;;;;;;;;;;;;;;;;;5073297;28;19925;-77
2024/02/09 16:15:44;;;;;;;;;;;;;;;;;;5081942;28;19963;-76
2024/02/09 16:18:10;;;;;;;;;;;;;;;;;;5075833;28;20392;-75
2024/02/09 16:20:37;;;;;;;;;;;;;;;;;;5078548;28;19959;-77
2024/02/09 16:23:03;;;;;;;;;;;;;;;;;;5070647;28;20338;-76
2024/02/09 16:25:30;;;;;;;;;;;;;;;;;;5067538;28;20066;-76
2024/02/09 16:27:56;;;;;;;;;;;;;;;;;;5081676;28;19925;-75
2024/02/09 16:30:22;;;;;;;;;;;;;;;;;;5082486;28;20380;-77
2024/02/09 16:32:51;;;;;;;;;;;;;;;;;;5087567;28;19925;-77
2024/02/09 16:35:18;;;;;;;;;;;;;;;;;;5053571;28;19924;-78
2024/02/09 16:37:45;;;;;;;;;;;;;;;;;;5083643;28;19924;-77
2024/02/09 16:40:12;;;;;;;;;;;;;;;;;;5077943;28;19929;-77
2024/02/09 16:42:40;;;;;;;;;;;;;;;;;;5079868;28;19928;-76
2024/02/09 16:45:07;;;;;;;;;;;;;;;;;;5062640;28;20339;-75
2024/02/09 16:47:33;;;;;;;;;;;;;;;;;;5082893;28;19928;-76
2024/02/09 16:50:00;;;;;;;;;;;;;;;;;;5081205;28;19938;-75
2024/02/09 16:52:26;;;;;;;;;;;;;;;;;;5080399;28;19924;-76
2024/02/09 16:54:53;;;;;;;;;;;;;;;;;;5079770;28;19924;-76
2024/02/09 16:57:20;;;;;;;;;;;;;;;;;;5077754;28;19924;-77
2024/02/09 16:59:46;;;;;;;;;;;;;;;;;;5078339;28;19931;-76
2024/02/09 17:02:14;;;;;;;;;;;;;;;;;;5082862;28;20022;-76
2024/02/09 17:04:42;;;;;;;;;;;;;;;;;;5084522;28;19931;-76
2024/02/09 17:07:09;;;;;;;;;;;;;;;;;;5061115;28;19924;-76
2024/02/09 17:09:36;;;;;;;;;;;;;;;;;;5077923;28;19986;-76
2024/02/09 17:12:02;;;;;;;;;;;;;;;;;;5089365;28;19928;-77
2024/02/09 17:14:29;;;;;;;;;;;;;;;;;;5074235;28;20019;-76
2024/02/09 17:16:58;;;;;;;;;;;;;;;;;;5078355;28;20373;-74
2024/02/09 17:19:28;;;;;;;;;;;;;;;;;;5083785;28;20427;-75
2024/02/09 17:21:55;;;;;;;;;;;;;;;;;;5081826;28;20015;-76
2024/02/09 17:24:21;;;;;;;;;;;;;;;;;;5085710;28;20296;-77
2024/02/09 17:26:48;;;;;;;;;;;;;;;;;;5080380;28;19924;-77
2024/02/09 17:29:14;;;;;;;;;;;;;;;;;;5076401;28;19924;-76
2024/02/09 17:31:41;;;;;;;;;;;;;;;;;;5077484;28;19936;-77
2024/02/09 17:34:07;;;;;;;;;;;;;;;;;;5082632;28;19963;-76
2024/02/09 17:36:34;;;;;;;;;;;;;;;;;;5067226;28;19938;-77
2024/02/09 17:39:00;;;;;;;;;;;;;;;;;;5074040;28;19961;-77
2024/02/09 17:41:29;;;;;;;;;;;;;;;;;;5087374;28;20011;-75
2024/02/09 17:43:59;;;;;;;;;;;;;;;;;;5082434;28;19951;-76
2024/02/09 17:46:25;;;;;;;;;;;;;;;;;;5072728;28;19939;-76
2024/02/09 17:48:52;;;;;;;;;;;;;;;;;;5083081;28;19939;-76
2024/02/09 17:51:18;;;;;;;;;;;;;;;;;;5065231;28;20441;-76
2024/02/09 17:53:45;;;;;;;;;;;;;;;;;;5077247;28;20015;-77
2024/02/09 17:56:13;;;;;;;;;;;;;;;;;;5078936;28;20297;-76
2024/02/09 17:58:40;;;;;;;;;;;;;;;;;;5078017;28;19971;-76
2024/02/09 18:01:06;;;;;;;;;;;;;;;;;;5078275;28;19928;-77
2024/02/09 18:03:34;;;;;;;;;;;;;;;;;;5070954;28;19924;-76
2024/02/09 18:06:01;;;;;;;;;;;;;;;;;;5089907;28;20027;-77
2024/02/09 18:08:27;;;;;;;;;;;;;;;;;;5081228;28;20446;-74
2024/02/09 18:10:53;;;;;;;;;;;;;;;;;;5085899;28;20459;-76
2024/02/09 18:13:20;;;;;;;;;;;;;;;;;;5081636;28;20361;-77
2024/02/09 18:15:47;;;;;;;;;;;;;;;;;;5082213;28;19924;-76
2024/02/09 18:18:13;;;;;;;;;;;;;;;;;;5084338;28;19946;-77
2024/02/09 18:20:42;;;;;;;;;;;;;;;;;;5079768;28;20472;-76
2024/02/09 18:23:08;;;;;;;;;;;;;;;;;;5086682;28;19924;-77
2024/02/09 18:25:35;;;;;;;;;;;;;;;;;;5078923;28;19948;-76
2024/02/09 18:28:01;;;;;;;;;;;;;;;;;;5083472;28;19928;-77
2024/02/09 18:30:27;;;;;;;;;;;;;;;;;;5061292;28;19925;-76
2024/02/09 18:32:59;;;;;;;;;;;;;;;;;;5077013;28;19950;-75
2024/02/09 18:35:26;;;;;;;;;;;;;;;;;;5070686;28;19952;-77